sensor_id;sensor_type;location;lat;lon;timestamp;P1;durP1;ratioP1;P2;durP2;ratioP2
38629;SDS011;24384;51.988;4.644;2023-05-10T00:00:34;302.38;;;16.88;;
38629;SDS011;24384;51.988;4.644;2023-05-10T00:02:59;122.40;;;10.45;;
38629;SDS011;24384;51.988;4.644;2023-05-10T00:05:24;97.82;;;15.32;;
38629;SDS011;24384;51.988;4.644;2023-05-10T00:07:49;25.55;;;16.38;;
38629;SDS011;24384;51.988;4.644;2023-05-10T00:10:15;25.67;;;16.42;;
38629;SDS011;24384;51.988;4.644;2023-05-10T00:12:42;21.52;;;8.25;;
38629;SDS011;24384;51.988;4.644;2023-05-10T00:15:07;30.33;;;18.77;;
38629;SDS011;24384;51.988;4.644;2023-05-10T00:17:33;29.08;;;17.52;;
38629;SDS011;24384;51.988;4.644;2023-05-10T00:19:58;31.17;;;18.15;;
38629;SDS011;24384;51.988;4.644;2023-05-10T00:22:23;80.57;;;18.50;;
38629;SDS011;24384;51.988;4.644;2023-05-10T00:24:49;126.93;;;18.90;;
38629;SDS011;24384;51.988;4.644;2023-05-10T00:27:14;82.57;;;17.50;;
38629;SDS011;24384;51.988;4.644;2023-05-10T00:29:39;78.10;;;14.35;;
38629;SDS011;24384;51.988;4.644;2023-05-10T00:32:05;132.45;;;21.50;;
38629;SDS011;24384;51.988;4.644;2023-05-10T00:34:30;176.90;;;11.38;;
38629;SDS011;24384;51.988;4.644;2023-05-10T00:36:56;36.67;;;18.35;;
38629;SDS011;24384;51.988;4.644;2023-05-10T00:39:21;31.08;;;21.42;;
38629;SDS011;24384;51.988;4.644;2023-05-10T00:41:47;39.17;;;24.45;;
38629;SDS011;24384;51.988;4.644;2023-05-10T00:44:12;36.08;;;23.60;;
38629;SDS011;24384;51.988;4.644;2023-05-10T00:46:37;36.47;;;22.50;;
38629;SDS011;24384;51.988;4.644;2023-05-10T00:49:03;36.85;;;23.75;;
38629;SDS011;24384;51.988;4.644;2023-05-10T00:51:29;43.15;;;25.48;;
38629;SDS011;24384;51.988;4.644;2023-05-10T00:53:54;41.90;;;25.48;;
38629;SDS011;24384;51.988;4.644;2023-05-10T00:56:20;42.85;;;26.45;;
38629;SDS011;24384;51.988;4.644;2023-05-10T00:58:47;48.72;;;27.13;;
38629;SDS011;24384;51.988;4.644;2023-05-10T01:01:13;51.65;;;27.77;;
38629;SDS011;24384;51.988;4.644;2023-05-10T01:03:38;48.90;;;28.17;;
38629;SDS011;24384;51.988;4.644;2023-05-10T01:06:05;51.78;;;29.92;;
38629;SDS011;24384;51.988;4.644;2023-05-10T01:08:31;47.80;;;27.08;;
38629;SDS011;24384;51.988;4.644;2023-05-10T01:10:57;42.88;;;27.30;;
38629;SDS011;24384;51.988;4.644;2023-05-10T01:13:29;45.92;;;27.98;;
38629;SDS011;24384;51.988;4.644;2023-05-10T01:15:58;46.90;;;27.40;;
38629;SDS011;24384;51.988;4.644;2023-05-10T01:18:26;49.72;;;29.02;;
38629;SDS011;24384;51.988;4.644;2023-05-10T01:24:07;59.17;;;31.15;;
38629;SDS011;24384;51.988;4.644;2023-05-10T01:27:17;57.25;;;32.38;;
38629;SDS011;24384;51.988;4.644;2023-05-10T01:38:21;64.18;;;34.47;;
38629;SDS011;24384;51.988;4.644;2023-05-10T01:44:03;60.53;;;32.10;;
38629;SDS011;24384;51.988;4.644;2023-05-10T01:46:38;68.53;;;33.08;;
38629;SDS011;24384;51.988;4.644;2023-05-10T01:49:09;69.53;;;36.97;;
38629;SDS011;24384;51.988;4.644;2023-05-10T01:51:40;79.60;;;37.80;;
38629;SDS011;24384;51.988;4.644;2023-05-10T01:54:11;73.53;;;36.95;;
38629;SDS011;24384;51.988;4.644;2023-05-10T01:56:38;80.57;;;36.78;;
38629;SDS011;24384;51.988;4.644;2023-05-10T01:59:06;74.72;;;35.85;;
38629;SDS011;24384;51.988;4.644;2023-05-10T02:01:36;71.60;;;35.83;;
38629;SDS011;24384;51.988;4.644;2023-05-10T02:04:02;67.90;;;39.22;;
38629;SDS011;24384;51.988;4.644;2023-05-10T02:06:28;72.45;;;38.97;;
38629;SDS011;24384;51.988;4.644;2023-05-10T02:08:53;61.30;;;32.50;;
38629;SDS011;24384;51.988;4.644;2023-05-10T02:11:20;65.32;;;33.95;;
38629;SDS011;24384;51.988;4.644;2023-05-10T02:13:47;63.38;;;32.92;;
38629;SDS011;24384;51.988;4.644;2023-05-10T02:16:14;69.03;;;34.28;;
38629;SDS011;24384;51.988;4.644;2023-05-10T02:18:41;68.10;;;34.95;;
38629;SDS011;24384;51.988;4.644;2023-05-10T02:21:08;73.65;;;35.47;;
38629;SDS011;24384;51.988;4.644;2023-05-10T02:23:34;67.32;;;36.17;;
38629;SDS011;24384;51.988;4.644;2023-05-10T02:26:01;62.45;;;35.35;;
38629;SDS011;24384;51.988;4.644;2023-05-10T02:28:28;85.55;;;36.00;;
38629;SDS011;24384;51.988;4.644;2023-05-10T02:30:55;73.72;;;37.55;;
38629;SDS011;24384;51.988;4.644;2023-05-10T02:33:21;64.97;;;34.72;;
38629;SDS011;24384;51.988;4.644;2023-05-10T02:35:47;72.47;;;36.10;;
38629;SDS011;24384;51.988;4.644;2023-05-10T02:38:14;60.72;;;33.53;;
38629;SDS011;24384;51.988;4.644;2023-05-10T02:40:41;69.93;;;32.75;;
38629;SDS011;24384;51.988;4.644;2023-05-10T02:43:09;58.88;;;29.48;;
38629;SDS011;24384;51.988;4.644;2023-05-10T02:45:38;57.88;;;32.15;;
38629;SDS011;24384;51.988;4.644;2023-05-10T02:48:05;57.70;;;30.05;;
38629;SDS011;24384;51.988;4.644;2023-05-10T02:50:31;51.88;;;26.40;;
38629;SDS011;24384;51.988;4.644;2023-05-10T02:52:59;50.42;;;26.50;;
38629;SDS011;24384;51.988;4.644;2023-05-10T02:55:35;54.13;;;28.10;;
38629;SDS011;24384;51.988;4.644;2023-05-10T02:58:03;40.88;;;22.58;;
38629;SDS011;24384;51.988;4.644;2023-05-10T03:00:28;50.50;;;23.55;;
38629;SDS011;24384;51.988;4.644;2023-05-10T03:02:54;46.83;;;25.35;;
38629;SDS011;24384;51.988;4.644;2023-05-10T03:05:20;50.28;;;23.77;;
38629;SDS011;24384;51.988;4.644;2023-05-10T03:07:46;47.35;;;26.05;;
38629;SDS011;24384;51.988;4.644;2023-05-10T03:10:12;46.28;;;22.40;;
38629;SDS011;24384;51.988;4.644;2023-05-10T03:12:50;60.22;;;28.17;;
38629;SDS011;24384;51.988;4.644;2023-05-10T03:18:11;54.53;;;28.60;;
38629;SDS011;24384;51.988;4.644;2023-05-10T03:20:45;53.47;;;27.23;;
38629;SDS011;24384;51.988;4.644;2023-05-10T03:23:16;49.47;;;25.23;;
38629;SDS011;24384;51.988;4.644;2023-05-10T03:25:42;57.28;;;30.48;;
38629;SDS011;24384;51.988;4.644;2023-05-10T03:28:09;55.00;;;28.65;;
38629;SDS011;24384;51.988;4.644;2023-05-10T03:30:34;60.75;;;31.15;;
38629;SDS011;24384;51.988;4.644;2023-05-10T03:33:07;59.00;;;30.10;;
38629;SDS011;24384;51.988;4.644;2023-05-10T03:35:33;60.05;;;33.42;;
38629;SDS011;24384;51.988;4.644;2023-05-10T03:37:58;56.50;;;29.42;;
38629;SDS011;24384;51.988;4.644;2023-05-10T03:40:24;58.40;;;31.67;;
38629;SDS011;24384;51.988;4.644;2023-05-10T03:42:50;62.08;;;35.35;;
38629;SDS011;24384;51.988;4.644;2023-05-10T03:45:16;60.13;;;35.00;;
38629;SDS011;24384;51.988;4.644;2023-05-10T03:47:41;65.70;;;38.35;;
38629;SDS011;24384;51.988;4.644;2023-05-10T03:50:06;72.15;;;34.72;;
38629;SDS011;24384;51.988;4.644;2023-05-10T03:52:32;60.55;;;34.80;;
38629;SDS011;24384;51.988;4.644;2023-05-10T03:54:57;66.93;;;37.65;;
38629;SDS011;24384;51.988;4.644;2023-05-10T03:57:23;60.63;;;34.13;;
38629;SDS011;24384;51.988;4.644;2023-05-10T03:59:48;61.22;;;35.45;;
38629;SDS011;24384;51.988;4.644;2023-05-10T04:02:13;50.97;;;33.08;;
38629;SDS011;24384;51.988;4.644;2023-05-10T04:04:39;58.28;;;32.92;;
38629;SDS011;24384;51.988;4.644;2023-05-10T04:07:04;51.45;;;30.73;;
38629;SDS011;24384;51.988;4.644;2023-05-10T04:09:29;57.05;;;31.35;;
38629;SDS011;24384;51.988;4.644;2023-05-10T04:11:54;41.20;;;26.52;;
38629;SDS011;24384;51.988;4.644;2023-05-10T04:14:20;51.90;;;32.78;;
38629;SDS011;24384;51.988;4.644;2023-05-10T04:16:45;54.67;;;32.55;;
38629;SDS011;24384;51.988;4.644;2023-05-10T04:19:10;62.67;;;36.97;;
38629;SDS011;24384;51.988;4.644;2023-05-10T04:21:36;52.63;;;33.38;;
38629;SDS011;24384;51.988;4.644;2023-05-10T04:24:01;51.35;;;32.30;;
38629;SDS011;24384;51.988;4.644;2023-05-10T04:26:26;62.58;;;36.78;;
38629;SDS011;24384;51.988;4.644;2023-05-10T04:28:52;55.88;;;33.15;;
38629;SDS011;24384;51.988;4.644;2023-05-10T04:31:17;60.40;;;36.15;;
38629;SDS011;24384;51.988;4.644;2023-05-10T04:33:42;63.58;;;36.70;;
38629;SDS011;24384;51.988;4.644;2023-05-10T04:36:07;62.95;;;34.35;;
38629;SDS011;24384;51.988;4.644;2023-05-10T04:38:33;60.90;;;37.90;;
38629;SDS011;24384;51.988;4.644;2023-05-10T04:41:05;60.95;;;36.78;;
38629;SDS011;24384;51.988;4.644;2023-05-10T04:43:31;60.88;;;34.22;;
38629;SDS011;24384;51.988;4.644;2023-05-10T04:45:56;63.45;;;35.78;;
38629;SDS011;24384;51.988;4.644;2023-05-10T04:48:22;57.85;;;37.17;;
38629;SDS011;24384;51.988;4.644;2023-05-10T04:50:47;68.13;;;38.92;;
38629;SDS011;24384;51.988;4.644;2023-05-10T04:53:13;67.05;;;39.05;;
38629;SDS011;24384;51.988;4.644;2023-05-10T04:55:39;55.78;;;35.40;;
38629;SDS011;24384;51.988;4.644;2023-05-10T04:58:04;58.90;;;33.88;;
38629;SDS011;24384;51.988;4.644;2023-05-10T05:00:30;63.97;;;35.58;;
38629;SDS011;24384;51.988;4.644;2023-05-10T05:02:56;61.58;;;34.88;;
38629;SDS011;24384;51.988;4.644;2023-05-10T05:05:21;52.67;;;31.30;;
38629;SDS011;24384;51.988;4.644;2023-05-10T05:07:46;62.88;;;34.58;;
38629;SDS011;24384;51.988;4.644;2023-05-10T05:10:11;59.15;;;34.97;;
38629;SDS011;24384;51.988;4.644;2023-05-10T05:12:37;62.50;;;33.45;;
38629;SDS011;24384;51.988;4.644;2023-05-10T05:15:02;61.05;;;31.23;;
38629;SDS011;24384;51.988;4.644;2023-05-10T05:17:29;59.40;;;30.02;;
38629;SDS011;24384;51.988;4.644;2023-05-10T05:19:55;72.55;;;34.17;;
38629;SDS011;24384;51.988;4.644;2023-05-10T05:22:20;56.47;;;33.42;;
38629;SDS011;24384;51.988;4.644;2023-05-10T05:24:54;94.43;;;37.15;;
38629;SDS011;24384;51.988;4.644;2023-05-10T05:27:20;62.67;;;29.25;;
38629;SDS011;24384;51.988;4.644;2023-05-10T05:29:49;45.55;;;23.42;;
38629;SDS011;24384;51.988;4.644;2023-05-10T05:32:18;37.10;;;17.65;;
38629;SDS011;24384;51.988;4.644;2023-05-10T05:34:44;36.95;;;20.30;;
38629;SDS011;24384;51.988;4.644;2023-05-10T05:37:14;45.15;;;21.98;;
38629;SDS011;24384;51.988;4.644;2023-05-10T05:39:39;30.38;;;16.50;;
38629;SDS011;24384;51.988;4.644;2023-05-10T05:42:05;34.08;;;17.45;;
38629;SDS011;24384;51.988;4.644;2023-05-10T05:44:30;32.65;;;17.92;;
38629;SDS011;24384;51.988;4.644;2023-05-10T05:46:55;25.75;;;14.00;;
38629;SDS011;24384;51.988;4.644;2023-05-10T05:49:20;24.92;;;13.57;;
38629;SDS011;24384;51.988;4.644;2023-05-10T05:51:46;23.80;;;13.48;;
38629;SDS011;24384;51.988;4.644;2023-05-10T05:54:12;22.98;;;13.30;;
38629;SDS011;24384;51.988;4.644;2023-05-10T05:56:37;25.92;;;13.80;;
38629;SDS011;24384;51.988;4.644;2023-05-10T05:59:02;20.70;;;12.30;;
38629;SDS011;24384;51.988;4.644;2023-05-10T06:01:30;20.42;;;10.10;;
38629;SDS011;24384;51.988;4.644;2023-05-10T06:03:55;18.58;;;10.73;;
38629;SDS011;24384;51.988;4.644;2023-05-10T06:06:20;14.48;;;9.02;;
38629;SDS011;24384;51.988;4.644;2023-05-10T06:08:46;15.02;;;9.57;;
38629;SDS011;24384;51.988;4.644;2023-05-10T06:11:11;14.25;;;8.63;;
38629;SDS011;24384;51.988;4.644;2023-05-10T06:13:36;10.63;;;7.53;;
38629;SDS011;24384;51.988;4.644;2023-05-10T06:16:04;13.20;;;8.18;;
38629;SDS011;24384;51.988;4.644;2023-05-10T06:18:33;10.70;;;7.43;;
38629;SDS011;24384;51.988;4.644;2023-05-10T06:20:59;10.77;;;7.85;;
38629;SDS011;24384;51.988;4.644;2023-05-10T06:23:24;10.90;;;6.38;;
38629;SDS011;24384;51.988;4.644;2023-05-10T06:25:50;8.23;;;6.65;;
38629;SDS011;24384;51.988;4.644;2023-05-10T06:28:16;7.30;;;6.53;;
38629;SDS011;24384;51.988;4.644;2023-05-10T06:30:41;10.25;;;6.90;;
38629;SDS011;24384;51.988;4.644;2023-05-10T06:33:07;8.63;;;6.25;;
38629;SDS011;24384;51.988;4.644;2023-05-10T06:35:32;7.88;;;6.97;;
38629;SDS011;24384;51.988;4.644;2023-05-10T06:37:58;8.40;;;6.63;;
38629;SDS011;24384;51.988;4.644;2023-05-10T06:40:23;10.80;;;7.28;;
38629;SDS011;24384;51.988;4.644;2023-05-10T06:42:48;8.90;;;6.93;;
38629;SDS011;24384;51.988;4.644;2023-05-10T06:45:14;7.20;;;5.82;;
38629;SDS011;24384;51.988;4.644;2023-05-10T06:47:40;7.15;;;6.05;;
38629;SDS011;24384;51.988;4.644;2023-05-10T06:50:07;6.95;;;5.78;;
38629;SDS011;24384;51.988;4.644;2023-05-10T06:52:33;8.00;;;6.05;;
38629;SDS011;24384;51.988;4.644;2023-05-10T06:54:58;7.88;;;6.22;;
38629;SDS011;24384;51.988;4.644;2023-05-10T06:57:23;7.50;;;5.25;;
38629;SDS011;24384;51.988;4.644;2023-05-10T06:59:49;5.88;;;5.07;;
38629;SDS011;24384;51.988;4.644;2023-05-10T07:02:16;6.10;;;4.57;;
38629;SDS011;24384;51.988;4.644;2023-05-10T07:04:41;7.43;;;4.78;;
38629;SDS011;24384;51.988;4.644;2023-05-10T07:07:06;7.32;;;5.32;;
38629;SDS011;24384;51.988;4.644;2023-05-10T07:09:31;7.18;;;5.25;;
38629;SDS011;24384;51.988;4.644;2023-05-10T07:11:57;6.00;;;5.40;;
38629;SDS011;24384;51.988;4.644;2023-05-10T07:14:23;6.25;;;5.15;;
38629;SDS011;24384;51.988;4.644;2023-05-10T07:16:49;5.88;;;4.60;;
38629;SDS011;24384;51.988;4.644;2023-05-10T07:19:14;6.18;;;5.18;;
38629;SDS011;24384;51.988;4.644;2023-05-10T07:21:39;6.10;;;4.40;;
38629;SDS011;24384;51.988;4.644;2023-05-10T07:24:07;5.80;;;5.00;;
38629;SDS011;24384;51.988;4.644;2023-05-10T07:26:32;5.13;;;4.43;;
38629;SDS011;24384;51.988;4.644;2023-05-10T07:28:57;5.97;;;4.97;;
38629;SDS011;24384;51.988;4.644;2023-05-10T07:31:23;6.85;;;5.10;;
38629;SDS011;24384;51.988;4.644;2023-05-10T07:33:49;6.60;;;5.35;;
38629;SDS011;24384;51.988;4.644;2023-05-10T07:36:15;8.77;;;5.25;;
38629;SDS011;24384;51.988;4.644;2023-05-10T07:38:40;7.03;;;5.55;;
38629;SDS011;24384;51.988;4.644;2023-05-10T07:41:08;8.05;;;6.70;;
38629;SDS011;24384;51.988;4.644;2023-05-10T07:43:34;9.10;;;5.90;;
38629;SDS011;24384;51.988;4.644;2023-05-10T07:46:00;8.25;;;6.68;;
38629;SDS011;24384;51.988;4.644;2023-05-10T07:48:26;8.63;;;6.28;;
38629;SDS011;24384;51.988;4.644;2023-05-10T07:50:51;8.70;;;6.22;;
38629;SDS011;24384;51.988;4.644;2023-05-10T07:53:16;9.18;;;6.25;;
38629;SDS011;24384;51.988;4.644;2023-05-10T07:55:43;10.57;;;7.05;;
38629;SDS011;24384;51.988;4.644;2023-05-10T07:58:08;8.63;;;5.65;;
38629;SDS011;24384;51.988;4.644;2023-05-10T08:00:34;8.38;;;5.93;;
38629;SDS011;24384;51.988;4.644;2023-05-10T08:02:59;9.95;;;6.82;;
38629;SDS011;24384;51.988;4.644;2023-05-10T08:05:24;10.95;;;6.55;;
38629;SDS011;24384;51.988;4.644;2023-05-10T08:07:50;7.45;;;5.32;;
38629;SDS011;24384;51.988;4.644;2023-05-10T08:10:15;11.90;;;6.40;;
38629;SDS011;24384;51.988;4.644;2023-05-10T08:12:42;7.93;;;6.30;;
38629;SDS011;24384;51.988;4.644;2023-05-10T08:15:09;13.13;;;6.45;;
38629;SDS011;24384;51.988;4.644;2023-05-10T08:17:36;9.77;;;6.25;;
38629;SDS011;24384;51.988;4.644;2023-05-10T08:20:01;13.02;;;7.28;;
38629;SDS011;24384;51.988;4.644;2023-05-10T08:22:26;16.02;;;7.28;;
38629;SDS011;24384;51.988;4.644;2023-05-10T08:24:52;11.90;;;6.75;;
38629;SDS011;24384;51.988;4.644;2023-05-10T08:27:17;13.60;;;6.43;;
38629;SDS011;24384;51.988;4.644;2023-05-10T08:29:42;11.10;;;7.07;;
38629;SDS011;24384;51.988;4.644;2023-05-10T08:32:08;9.18;;;6.97;;
38629;SDS011;24384;51.988;4.644;2023-05-10T08:34:33;10.43;;;7.35;;
38629;SDS011;24384;51.988;4.644;2023-05-10T08:36:58;13.45;;;7.10;;
38629;SDS011;24384;51.988;4.644;2023-05-10T08:39:25;12.02;;;6.35;;
38629;SDS011;24384;51.988;4.644;2023-05-10T08:41:51;8.55;;;6.18;;
38629;SDS011;24384;51.988;4.644;2023-05-10T08:44:19;11.27;;;6.15;;
38629;SDS011;24384;51.988;4.644;2023-05-10T08:46:46;11.45;;;5.65;;
38629;SDS011;24384;51.988;4.644;2023-05-10T08:49:17;10.43;;;6.20;;
38629;SDS011;24384;51.988;4.644;2023-05-10T08:51:46;9.85;;;6.85;;
38629;SDS011;24384;51.988;4.644;2023-05-10T08:54:16;10.32;;;6.68;;
38629;SDS011;24384;51.988;4.644;2023-05-10T08:56:41;9.25;;;5.45;;
38629;SDS011;24384;51.988;4.644;2023-05-10T08:59:08;9.82;;;5.22;;
38629;SDS011;24384;51.988;4.644;2023-05-10T09:01:33;12.68;;;5.35;;
38629;SDS011;24384;51.988;4.644;2023-05-10T09:04:01;11.23;;;6.28;;
38629;SDS011;24384;51.988;4.644;2023-05-10T09:06:26;10.00;;;5.25;;
38629;SDS011;24384;51.988;4.644;2023-05-10T09:08:52;7.75;;;4.78;;
38629;SDS011;24384;51.988;4.644;2023-05-10T09:11:17;7.53;;;4.57;;
38629;SDS011;24384;51.988;4.644;2023-05-10T09:13:42;8.73;;;4.82;;
38629;SDS011;24384;51.988;4.644;2023-05-10T09:16:10;10.73;;;5.20;;
38629;SDS011;24384;51.988;4.644;2023-05-10T09:18:36;5.90;;;4.22;;
38629;SDS011;24384;51.988;4.644;2023-05-10T09:21:02;6.93;;;3.90;;
38629;SDS011;24384;51.988;4.644;2023-05-10T09:23:28;5.40;;;4.18;;
38629;SDS011;24384;51.988;4.644;2023-05-10T09:26:06;6.88;;;4.93;;
38629;SDS011;24384;51.988;4.644;2023-05-10T09:28:32;7.13;;;4.28;;
38629;SDS011;24384;51.988;4.644;2023-05-10T09:31:17;8.18;;;4.13;;
38629;SDS011;24384;51.988;4.644;2023-05-10T09:33:47;7.35;;;4.50;;
38629;SDS011;24384;51.988;4.644;2023-05-10T09:36:14;11.43;;;5.68;;
38629;SDS011;24384;51.988;4.644;2023-05-10T09:38:47;17.83;;;6.55;;
38629;SDS011;24384;51.988;4.644;2023-05-10T09:41:17;6.18;;;4.20;;
38629;SDS011;24384;51.988;4.644;2023-05-10T09:43:49;7.35;;;4.45;;
38629;SDS011;24384;51.988;4.644;2023-05-10T09:46:20;4.30;;;3.10;;
38629;SDS011;24384;51.988;4.644;2023-05-10T09:48:46;4.10;;;2.35;;
38629;SDS011;24384;51.988;4.644;2023-05-10T09:51:23;3.05;;;2.50;;
38629;SDS011;24384;51.988;4.644;2023-05-10T09:56:39;6.03;;;3.15;;
38629;SDS011;24384;51.988;4.644;2023-05-10T09:59:05;7.15;;;3.63;;
38629;SDS011;24384;51.988;4.644;2023-05-10T10:01:31;7.45;;;3.95;;
38629;SDS011;24384;51.988;4.644;2023-05-10T10:03:57;5.75;;;4.07;;
38629;SDS011;24384;51.988;4.644;2023-05-10T10:06:23;7.85;;;3.78;;
38629;SDS011;24384;51.988;4.644;2023-05-10T10:08:50;7.22;;;4.55;;
38629;SDS011;24384;51.988;4.644;2023-05-10T10:11:16;6.45;;;4.03;;
38629;SDS011;24384;51.988;4.644;2023-05-10T10:13:41;8.38;;;4.95;;
38629;SDS011;24384;51.988;4.644;2023-05-10T10:16:07;7.72;;;5.47;;
38629;SDS011;24384;51.988;4.644;2023-05-10T10:18:33;10.52;;;6.22;;
38629;SDS011;24384;51.988;4.644;2023-05-10T10:21:03;8.82;;;6.07;;
38629;SDS011;24384;51.988;4.644;2023-05-10T10:23:33;10.50;;;6.00;;
38629;SDS011;24384;51.988;4.644;2023-05-10T10:25:59;10.07;;;6.38;;
38629;SDS011;24384;51.988;4.644;2023-05-10T10:36:25;8.57;;;6.30;;
38629;SDS011;24384;51.988;4.644;2023-05-10T10:41:29;7.57;;;5.20;;
38629;SDS011;24384;51.988;4.644;2023-05-10T10:50:05;7.07;;;3.95;;
38629;SDS011;24384;51.988;4.644;2023-05-10T10:52:34;12.20;;;4.25;;
38629;SDS011;24384;51.988;4.644;2023-05-10T10:55:07;10.07;;;4.65;;
38629;SDS011;24384;51.988;4.644;2023-05-10T11:02:52;8.40;;;6.38;;
38629;SDS011;24384;51.988;4.644;2023-05-10T11:07:54;12.13;;;7.32;;
38629;SDS011;24384;51.988;4.644;2023-05-10T11:10:21;11.85;;;6.68;;
38629;SDS011;24384;51.988;4.644;2023-05-10T11:13:26;10.63;;;7.53;;
38629;SDS011;24384;51.988;4.644;2023-05-10T11:15:40;10.02;;;6.45;;
38629;SDS011;24384;51.988;4.644;2023-05-10T11:18:17;9.90;;;6.50;;
38629;SDS011;24384;51.988;4.644;2023-05-10T11:20:44;8.15;;;6.22;;
38629;SDS011;24384;51.988;4.644;2023-05-10T11:23:15;8.68;;;6.47;;
38629;SDS011;24384;51.988;4.644;2023-05-10T11:25:42;6.57;;;4.00;;
38629;SDS011;24384;51.988;4.644;2023-05-10T11:28:11;6.05;;;4.00;;
38629;SDS011;24384;51.988;4.644;2023-05-10T11:30:38;7.70;;;4.50;;
38629;SDS011;24384;51.988;4.644;2023-05-10T11:33:05;9.35;;;4.80;;
38629;SDS011;24384;51.988;4.644;2023-05-10T11:35:41;8.38;;;6.20;;
38629;SDS011;24384;51.988;4.644;2023-05-10T11:38:07;9.02;;;6.50;;
38629;SDS011;24384;51.988;4.644;2023-05-10T11:40:34;11.75;;;7.13;;
38629;SDS011;24384;51.988;4.644;2023-05-10T11:42:59;8.75;;;6.35;;
38629;SDS011;24384;51.988;4.644;2023-05-10T11:45:24;8.50;;;6.63;;
38629;SDS011;24384;51.988;4.644;2023-05-10T11:47:50;10.13;;;7.75;;
38629;SDS011;24384;51.988;4.644;2023-05-10T11:50:17;10.80;;;6.95;;
38629;SDS011;24384;51.988;4.644;2023-05-10T11:52:43;8.25;;;5.85;;
38629;SDS011;24384;51.988;4.644;2023-05-10T11:55:08;8.45;;;6.95;;
38629;SDS011;24384;51.988;4.644;2023-05-10T11:57:34;10.00;;;5.95;;
38629;SDS011;24384;51.988;4.644;2023-05-10T12:00:00;8.55;;;5.95;;
38629;SDS011;24384;51.988;4.644;2023-05-10T12:02:28;9.90;;;6.15;;
38629;SDS011;24384;51.988;4.644;2023-05-10T12:04:54;8.90;;;6.63;;
38629;SDS011;24384;51.988;4.644;2023-05-10T12:07:20;8.95;;;6.80;;
38629;SDS011;24384;51.988;4.644;2023-05-10T12:12:38;7.40;;;5.55;;
38629;SDS011;24384;51.988;4.644;2023-05-10T12:15:10;8.98;;;7.53;;
38629;SDS011;24384;51.988;4.644;2023-05-10T12:17:37;9.48;;;6.72;;
38629;SDS011;24384;51.988;4.644;2023-05-10T12:20:12;7.88;;;6.70;;
38629;SDS011;24384;51.988;4.644;2023-05-10T12:22:39;9.60;;;6.95;;
38629;SDS011;24384;51.988;4.644;2023-05-10T12:25:05;8.30;;;6.60;;
38629;SDS011;24384;51.988;4.644;2023-05-10T12:27:32;12.48;;;8.23;;
38629;SDS011;24384;51.988;4.644;2023-05-10T12:29:59;11.13;;;6.82;;
38629;SDS011;24384;51.988;4.644;2023-05-10T12:32:36;11.60;;;6.82;;
38629;SDS011;24384;51.988;4.644;2023-05-10T12:35:06;10.13;;;6.40;;
38629;SDS011;24384;51.988;4.644;2023-05-10T12:37:32;9.35;;;6.38;;
38629;SDS011;24384;51.988;4.644;2023-05-10T12:40:00;8.90;;;6.60;;
38629;SDS011;24384;51.988;4.644;2023-05-10T12:42:27;10.65;;;6.18;;
38629;SDS011;24384;51.988;4.644;2023-05-10T12:44:56;8.68;;;6.20;;
38629;SDS011;24384;51.988;4.644;2023-05-10T12:47:21;8.65;;;5.75;;
38629;SDS011;24384;51.988;4.644;2023-05-10T12:49:47;10.15;;;7.45;;
38629;SDS011;24384;51.988;4.644;2023-05-10T12:52:12;11.07;;;7.00;;
38629;SDS011;24384;51.988;4.644;2023-05-10T12:54:37;10.30;;;5.28;;
38629;SDS011;24384;51.988;4.644;2023-05-10T12:57:02;12.55;;;6.00;;
38629;SDS011;24384;51.988;4.644;2023-05-10T12:59:28;8.85;;;5.20;;
38629;SDS011;24384;51.988;4.644;2023-05-10T13:01:53;9.25;;;5.38;;
38629;SDS011;24384;51.988;4.644;2023-05-10T13:04:19;10.85;;;6.65;;
38629;SDS011;24384;51.988;4.644;2023-05-10T13:06:44;12.07;;;7.05;;
38629;SDS011;24384;51.988;4.644;2023-05-10T13:09:09;9.48;;;6.22;;
38629;SDS011;24384;51.988;4.644;2023-05-10T13:11:36;9.90;;;5.53;;
38629;SDS011;24384;51.988;4.644;2023-05-10T13:14:02;7.78;;;5.53;;
38629;SDS011;24384;51.988;4.644;2023-05-10T13:16:28;10.73;;;6.40;;
38629;SDS011;24384;51.988;4.644;2023-05-10T13:18:53;12.10;;;7.05;;
38629;SDS011;24384;51.988;4.644;2023-05-10T13:21:18;12.15;;;6.95;;
38629;SDS011;24384;51.988;4.644;2023-05-10T13:23:44;14.00;;;6.70;;
38629;SDS011;24384;51.988;4.644;2023-05-10T13:26:09;9.13;;;6.65;;
38629;SDS011;24384;51.988;4.644;2023-05-10T13:28:34;12.63;;;7.30;;
38629;SDS011;24384;51.988;4.644;2023-05-10T13:31:00;10.70;;;6.57;;
38629;SDS011;24384;51.988;4.644;2023-05-10T13:33:25;9.77;;;6.50;;
38629;SDS011;24384;51.988;4.644;2023-05-10T13:35:50;8.65;;;5.88;;
38629;SDS011;24384;51.988;4.644;2023-05-10T13:38:15;8.32;;;5.85;;
38629;SDS011;24384;51.988;4.644;2023-05-10T13:40:41;9.57;;;5.38;;
38629;SDS011;24384;51.988;4.644;2023-05-10T13:43:06;8.18;;;5.85;;
38629;SDS011;24384;51.988;4.644;2023-05-10T13:45:31;15.50;;;5.95;;
38629;SDS011;24384;51.988;4.644;2023-05-10T13:47:58;11.80;;;5.75;;
38629;SDS011;24384;51.988;4.644;2023-05-10T13:50:23;11.85;;;6.65;;
38629;SDS011;24384;51.988;4.644;2023-05-10T13:52:48;8.50;;;5.85;;
38629;SDS011;24384;51.988;4.644;2023-05-10T13:55:13;10.10;;;5.15;;
38629;SDS011;24384;51.988;4.644;2023-05-10T13:57:39;8.52;;;5.40;;
38629;SDS011;24384;51.988;4.644;2023-05-10T14:00:04;7.45;;;5.20;;
38629;SDS011;24384;51.988;4.644;2023-05-10T14:02:30;10.27;;;5.70;;
38629;SDS011;24384;51.988;4.644;2023-05-10T14:04:56;8.95;;;6.25;;
38629;SDS011;24384;51.988;4.644;2023-05-10T14:07:21;8.57;;;5.82;;
38629;SDS011;24384;51.988;4.644;2023-05-10T14:09:46;10.35;;;5.75;;
38629;SDS011;24384;51.988;4.644;2023-05-10T14:12:13;11.98;;;6.32;;
38629;SDS011;24384;51.988;4.644;2023-05-10T14:14:39;8.57;;;5.38;;
38629;SDS011;24384;51.988;4.644;2023-05-10T14:17:04;8.32;;;4.57;;
38629;SDS011;24384;51.988;4.644;2023-05-10T14:19:30;10.20;;;4.82;;
38629;SDS011;24384;51.988;4.644;2023-05-10T14:21:57;7.68;;;4.45;;
38629;SDS011;24384;51.988;4.644;2023-05-10T14:24:22;7.68;;;4.82;;
38629;SDS011;24384;51.988;4.644;2023-05-10T14:26:47;6.72;;;4.80;;
38629;SDS011;24384;51.988;4.644;2023-05-10T14:29:14;6.10;;;4.00;;
38629;SDS011;24384;51.988;4.644;2023-05-10T14:31:40;4.90;;;3.97;;
38629;SDS011;24384;51.988;4.644;2023-05-10T14:34:06;7.22;;;4.72;;
38629;SDS011;24384;51.988;4.644;2023-05-10T14:36:31;9.48;;;5.60;;
38629;SDS011;24384;51.988;4.644;2023-05-10T14:38:58;6.47;;;4.80;;
38629;SDS011;24384;51.988;4.644;2023-05-10T14:41:23;7.93;;;4.20;;
38629;SDS011;24384;51.988;4.644;2023-05-10T14:43:49;8.70;;;4.63;;
38629;SDS011;24384;51.988;4.644;2023-05-10T14:46:14;10.50;;;4.97;;
38629;SDS011;24384;51.988;4.644;2023-05-10T14:48:40;11.52;;;5.35;;
38629;SDS011;24384;51.988;4.644;2023-05-10T14:51:06;6.47;;;4.68;;
38629;SDS011;24384;51.988;4.644;2023-05-10T14:53:31;7.60;;;5.35;;
38629;SDS011;24384;51.988;4.644;2023-05-10T14:55:58;8.52;;;5.03;;
38629;SDS011;24384;51.988;4.644;2023-05-10T14:58:26;8.25;;;5.50;;
38629;SDS011;24384;51.988;4.644;2023-05-10T15:00:51;6.80;;;5.63;;
38629;SDS011;24384;51.988;4.644;2023-05-10T15:03:17;10.45;;;5.15;;
38629;SDS011;24384;51.988;4.644;2023-05-10T15:05:42;8.93;;;5.00;;
38629;SDS011;24384;51.988;4.644;2023-05-10T15:08:07;11.93;;;5.07;;
38629;SDS011;24384;51.988;4.644;2023-05-10T15:10:34;7.78;;;5.43;;
38629;SDS011;24384;51.988;4.644;2023-05-10T15:13:01;7.05;;;5.18;;
38629;SDS011;24384;51.988;4.644;2023-05-10T15:15:26;7.75;;;5.32;;
38629;SDS011;24384;51.988;4.644;2023-05-10T15:17:52;9.32;;;4.93;;